sensor_id;sensor_type;location;lat;lon;timestamp;temperature;humidity
75281;HTU21D;63874;47.230;39.620;2023-03-23T00:02:14;10.86;59.76
75281;HTU21D;63874;47.230;39.620;2023-03-23T00:04:41;10.81;59.93
75281;HTU21D;63874;47.230;39.620;2023-03-23T00:07:08;10.79;59.99
75281;HTU21D;63874;47.230;39.620;2023-03-23T00:09:34;10.78;60.05
75281;HTU21D;63874;47.230;39.620;2023-03-23T00:12:07;10.73;60.22
75281;HTU21D;63874;47.230;39.620;2023-03-23T00:14:33;10.70;60.31
75281;HTU21D;63874;47.230;39.620;2023-03-23T00:17:08;10.67;60.37
75281;HTU21D;63874;47.230;39.620;2023-03-23T00:19:38;10.66;60.47
75281;HTU21D;63874;47.230;39.620;2023-03-23T00:22:17;10.64;60.50
75281;HTU21D;63874;47.230;39.620;2023-03-23T00:24:47;10.63;60.61
75281;HTU21D;63874;47.230;39.620;2023-03-23T00:27:16;10.60;60.65
75281;HTU21D;63874;47.230;39.620;2023-03-23T00:29:43;10.58;60.72
75281;HTU21D;63874;47.230;39.620;2023-03-23T00:32:11;10.57;60.79
75281;HTU21D;63874;47.230;39.620;2023-03-23T00:34:41;10.55;60.89
75281;HTU21D;63874;47.230;39.620;2023-03-23T00:37:09;10.55;60.93
75281;HTU21D;63874;47.230;39.620;2023-03-23T00:39:38;10.56;60.96
75281;HTU21D;63874;47.230;39.620;2023-03-23T00:42:05;10.55;60.99
75281;HTU21D;63874;47.230;39.620;2023-03-23T00:44:32;10.53;61.04
75281;HTU21D;63874;47.230;39.620;2023-03-23T00:47:05;10.51;61.09
75281;HTU21D;63874;47.230;39.620;2023-03-23T00:49:31;10.48;61.12
75281;HTU21D;63874;47.230;39.620;2023-03-23T00:52:01;10.48;61.20
75281;HTU21D;63874;47.230;39.620;2023-03-23T00:54:27;10.46;61.28
75281;HTU21D;63874;47.230;39.620;2023-03-23T00:56:54;10.43;61.27
75281;HTU21D;63874;47.230;39.620;2023-03-23T00:59:20;10.43;61.37
75281;HTU21D;63874;47.230;39.620;2023-03-23T01:01:47;10.40;61.38
75281;HTU21D;63874;47.230;39.620;2023-03-23T01:04:13;10.40;61.41
75281;HTU21D;63874;47.230;39.620;2023-03-23T01:06:41;10.39;61.51
75281;HTU21D;63874;47.230;39.620;2023-03-23T01:09:15;10.39;61.50
75281;HTU21D;63874;47.230;39.620;2023-03-23T01:11:43;10.37;61.50
75281;HTU21D;63874;47.230;39.620;2023-03-23T01:14:11;10.36;61.60
75281;HTU21D;63874;47.230;39.620;2023-03-23T01:16:37;10.35;61.57
75281;HTU21D;63874;47.230;39.620;2023-03-23T01:19:03;10.34;61.58
75281;HTU21D;63874;47.230;39.620;2023-03-23T01:21:29;10.34;61.59
75281;HTU21D;63874;47.230;39.620;2023-03-23T01:23:55;10.31;61.63
75281;HTU21D;63874;47.230;39.620;2023-03-23T01:26:24;10.30;61.70
75281;HTU21D;63874;47.230;39.620;2023-03-23T01:28:51;10.33;61.71
75281;HTU21D;63874;47.230;39.620;2023-03-23T01:31:20;10.33;61.67
75281;HTU21D;63874;47.230;39.620;2023-03-23T01:33:47;10.31;61.64
75281;HTU21D;63874;47.230;39.620;2023-03-23T01:36:16;10.31;61.63
75281;HTU21D;63874;47.230;39.620;2023-03-23T01:38:44;10.28;61.66
75281;HTU21D;63874;47.230;39.620;2023-03-23T01:41:11;10.26;61.73
75281;HTU21D;63874;47.230;39.620;2023-03-23T01:43:59;10.23;61.88
75281;HTU21D;63874;47.230;39.620;2023-03-23T01:46:32;10.21;61.83
75281;HTU21D;63874;47.230;39.620;2023-03-23T01:49:20;10.19;61.96
75281;HTU21D;63874;47.230;39.620;2023-03-23T01:51:51;10.15;61.92
75281;HTU21D;63874;47.230;39.620;2023-03-23T01:54:19;10.13;61.98
75281;HTU21D;63874;47.230;39.620;2023-03-23T01:56:52;10.10;62.10
75281;HTU21D;63874;47.230;39.620;2023-03-23T01:59:20;10.08;62.05
75281;HTU21D;63874;47.230;39.620;2023-03-23T02:01:56;10.07;62.09
75281;HTU21D;63874;47.230;39.620;2023-03-23T02:04:24;10.03;62.17
75281;HTU21D;63874;47.230;39.620;2023-03-23T02:06:52;10.00;62.21
75281;HTU21D;63874;47.230;39.620;2023-03-23T02:09:21;9.98;62.27
75281;HTU21D;63874;47.230;39.620;2023-03-23T02:11:49;9.95;62.37
75281;HTU21D;63874;47.230;39.620;2023-03-23T02:14:16;9.94;62.41
75281;HTU21D;63874;47.230;39.620;2023-03-23T02:17:23;9.90;62.65
75281;HTU21D;63874;47.230;39.620;2023-03-23T02:26:02;9.75;62.82
75281;HTU21D;63874;47.230;39.620;2023-03-23T02:29:06;9.71;62.90
75281;HTU21D;63874;47.230;39.620;2023-03-23T02:39:59;9.63;63.27
75281;HTU21D;63874;47.230;39.620;2023-03-23T02:42:29;9.62;63.25
75281;HTU21D;63874;47.230;39.620;2023-03-23T02:45:02;9.61;63.24
75281;HTU21D;63874;47.230;39.620;2023-03-23T02:47:29;9.63;63.25
75281;HTU21D;63874;47.230;39.620;2023-03-23T02:49:56;9.64;63.27
75281;HTU21D;63874;47.230;39.620;2023-03-23T02:52:30;9.65;63.25
75281;HTU21D;63874;47.230;39.620;2023-03-23T02:54:58;9.66;63.26
75281;HTU21D;63874;47.230;39.620;2023-03-23T02:57:27;9.66;63.31
75281;HTU21D;63874;47.230;39.620;2023-03-23T02:59:55;9.67;63.28
75281;HTU21D;63874;47.230;39.620;2023-03-23T03:02:24;9.67;63.31
75281;HTU21D;63874;47.230;39.620;2023-03-23T03:11:07;9.69;63.36
75281;HTU21D;63874;47.230;39.620;2023-03-23T03:21:30;9.71;63.39
75281;HTU21D;63874;47.230;39.620;2023-03-23T03:24:01;9.70;63.40
75281;HTU21D;63874;47.230;39.620;2023-03-23T03:26:30;9.72;63.39
75281;HTU21D;63874;47.230;39.620;2023-03-23T03:29:09;9.71;63.44
75281;HTU21D;63874;47.230;39.620;2023-03-23T03:31:42;9.70;63.51
75281;HTU21D;63874;47.230;39.620;2023-03-23T03:34:12;9.70;63.50
75281;HTU21D;63874;47.230;39.620;2023-03-23T03:36:46;9.72;63.47
75281;HTU21D;63874;47.230;39.620;2023-03-23T03:39:14;9.74;63.53
75281;HTU21D;63874;47.230;39.620;2023-03-23T03:41:43;9.74;63.55
75281;HTU21D;63874;47.230;39.620;2023-03-23T03:44:10;9.75;63.58
75281;HTU21D;63874;47.230;39.620;2023-03-23T03:46:37;9.76;63.64
75281;HTU21D;63874;47.230;39.620;2023-03-23T03:49:05;9.78;63.64
75281;HTU21D;63874;47.230;39.620;2023-03-23T03:51:34;9.76;63.61
75281;HTU21D;63874;47.230;39.620;2023-03-23T03:54:02;9.78;63.65
75281;HTU21D;63874;47.230;39.620;2023-03-23T03:56:28;9.80;63.66
75281;HTU21D;63874;47.230;39.620;2023-03-23T03:59:14;9.84;63.66
75281;HTU21D;63874;47.230;39.620;2023-03-23T04:01:52;9.84;63.76
75281;HTU21D;63874;47.230;39.620;2023-03-23T04:04:21;9.86;63.77
75281;HTU21D;63874;47.230;39.620;2023-03-23T04:06:50;9.88;63.77
75281;HTU21D;63874;47.230;39.620;2023-03-23T04:09:16;9.90;63.80
75281;HTU21D;63874;47.230;39.620;2023-03-23T04:11:42;9.93;63.76
75281;HTU21D;63874;47.230;39.620;2023-03-23T04:14:28;9.95;63.72
75281;HTU21D;63874;47.230;39.620;2023-03-23T04:16:54;9.99;63.73
75281;HTU21D;63874;47.230;39.620;2023-03-23T04:19:23;10.03;63.71
75281;HTU21D;63874;47.230;39.620;2023-03-23T04:21:50;10.05;63.66
75281;HTU21D;63874;47.230;39.620;2023-03-23T04:24:17;10.08;63.59
75281;HTU21D;63874;47.230;39.620;2023-03-23T04:26:47;10.09;63.57
75281;HTU21D;63874;47.230;39.620;2023-03-23T04:29:21;10.14;63.50
75281;HTU21D;63874;47.230;39.620;2023-03-23T04:31:48;10.19;63.40
75281;HTU21D;63874;47.230;39.620;2023-03-23T04:34:28;10.22;63.31
75281;HTU21D;63874;47.230;39.620;2023-03-23T04:37:00;10.22;63.27
75281;HTU21D;63874;47.230;39.620;2023-03-23T04:39:28;10.26;63.21
75281;HTU21D;63874;47.230;39.620;2023-03-23T04:41:57;10.30;63.15
75281;HTU21D;63874;47.230;39.620;2023-03-23T04:44:45;10.33;63.07
75281;HTU21D;63874;47.230;39.620;2023-03-23T04:47:21;10.35;63.04
75281;HTU21D;63874;47.230;39.620;2023-03-23T04:49:53;10.38;63.04
75281;HTU21D;63874;47.230;39.620;2023-03-23T04:52:27;10.41;63.00
75281;HTU21D;63874;47.230;39.620;2023-03-23T04:55:00;10.44;62.96
75281;HTU21D;63874;47.230;39.620;2023-03-23T04:57:27;10.48;62.99
75281;HTU21D;63874;47.230;39.620;2023-03-23T05:00:12;10.50;62.95
75281;HTU21D;63874;47.230;39.620;2023-03-23T05:02:45;10.50;62.90
75281;HTU21D;63874;47.230;39.620;2023-03-23T05:05:19;10.51;62.98
75281;HTU21D;63874;47.230;39.620;2023-03-23T05:07:46;10.56;62.96
75281;HTU21D;63874;47.230;39.620;2023-03-23T05:10:16;10.60;62.89
75281;HTU21D;63874;47.230;39.620;2023-03-23T05:12:43;10.68;62.86
75281;HTU21D;63874;47.230;39.620;2023-03-23T05:15:12;10.73;62.76
75281;HTU21D;63874;47.230;39.620;2023-03-23T05:17:42;10.79;62.67
75281;HTU21D;63874;47.230;39.620;2023-03-23T05:20:18;10.85;62.62
75281;HTU21D;63874;47.230;39.620;2023-03-23T05:22:52;10.90;62.49
75281;HTU21D;63874;47.230;39.620;2023-03-23T05:25:24;10.96;62.50
75281;HTU21D;63874;47.230;39.620;2023-03-23T05:27:58;11.02;62.42
75281;HTU21D;63874;47.230;39.620;2023-03-23T05:30:51;11.11;62.23
75281;HTU21D;63874;47.230;39.620;2023-03-23T05:33:20;11.18;62.18
75281;HTU21D;63874;47.230;39.620;2023-03-23T05:35:50;11.27;62.12
75281;HTU21D;63874;47.230;39.620;2023-03-23T05:38:22;11.34;61.97
75281;HTU21D;63874;47.230;39.620;2023-03-23T05:40:49;11.38;61.88
75281;HTU21D;63874;47.230;39.620;2023-03-23T05:43:18;11.44;61.88
75281;HTU21D;63874;47.230;39.620;2023-03-23T05:46:03;11.52;61.83
75281;HTU21D;63874;47.230;39.620;2023-03-23T05:48:30;11.62;61.75
75281;HTU21D;63874;47.230;39.620;2023-03-23T05:50:57;11.73;61.59
75281;HTU21D;63874;47.230;39.620;2023-03-23T05:53:24;11.83;61.39
75281;HTU21D;63874;47.230;39.620;2023-03-23T05:55:52;11.93;61.25
75281;HTU21D;63874;47.230;39.620;2023-03-23T05:58:37;12.04;61.09
75281;HTU21D;63874;47.230;39.620;2023-03-23T06:01:08;12.16;60.89
75281;HTU21D;63874;47.230;39.620;2023-03-23T06:03:34;12.26;60.76
75281;HTU21D;63874;47.230;39.620;2023-03-23T06:06:17;12.35;60.57
75281;HTU21D;63874;47.230;39.620;2023-03-23T06:08:52;12.44;60.28
75281;HTU21D;63874;47.230;39.620;2023-03-23T06:11:29;12.52;60.21
75281;HTU21D;63874;47.230;39.620;2023-03-23T06:14:15;12.59;60.12
75281;HTU21D;63874;47.230;39.620;2023-03-23T06:16:43;12.65;60.09
75281;HTU21D;63874;47.230;39.620;2023-03-23T06:19:13;12.73;60.04
75281;HTU21D;63874;47.230;39.620;2023-03-23T06:21:45;12.84;59.92
75281;HTU21D;63874;47.230;39.620;2023-03-23T06:24:24;12.94;59.58
75281;HTU21D;63874;47.230;39.620;2023-03-23T06:26:51;13.02;59.24
75281;HTU21D;63874;47.230;39.620;2023-03-23T06:29:20;13.07;59.04
75281;HTU21D;63874;47.230;39.620;2023-03-23T06:31:56;13.11;58.83
75281;HTU21D;63874;47.230;39.620;2023-03-23T06:34:24;13.14;58.82
75281;HTU21D;63874;47.230;39.620;2023-03-23T06:37:10;13.19;58.86
75281;HTU21D;63874;47.230;39.620;2023-03-23T06:39:45;13.26;58.87
75281;HTU21D;63874;47.230;39.620;2023-03-23T06:42:19;13.39;58.87
75281;HTU21D;63874;47.230;39.620;2023-03-23T06:44:53;13.53;58.66
75281;HTU21D;63874;47.230;39.620;2023-03-23T06:47:23;13.65;58.57
75281;HTU21D;63874;47.230;39.620;2023-03-23T06:49:49;13.74;58.41
75281;HTU21D;63874;47.230;39.620;2023-03-23T06:52:22;13.84;58.35
75281;HTU21D;63874;47.230;39.620;2023-03-23T06:54:50;13.95;58.34
75281;HTU21D;63874;47.230;39.620;2023-03-23T06:57:18;14.04;57.91
75281;HTU21D;63874;47.230;39.620;2023-03-23T06:59:45;14.12;57.75
75281;HTU21D;63874;47.230;39.620;2023-03-23T07:02:13;14.19;57.58
75281;HTU21D;63874;47.230;39.620;2023-03-23T07:04:45;14.29;57.49
75281;HTU21D;63874;47.230;39.620;2023-03-23T07:07:19;14.45;57.32
75281;HTU21D;63874;47.230;39.620;2023-03-23T07:10:07;14.63;56.90
75281;HTU21D;63874;47.230;39.620;2023-03-23T07:12:35;14.72;56.68
75281;HTU21D;63874;47.230;39.620;2023-03-23T07:15:03;14.80;56.63
75281;HTU21D;63874;47.230;39.620;2023-03-23T07:17:29;14.92;56.46
75281;HTU21D;63874;47.230;39.620;2023-03-23T07:20:18;15.04;56.05
75281;HTU21D;63874;47.230;39.620;2023-03-23T07:22:44;15.13;55.91
75281;HTU21D;63874;47.230;39.620;2023-03-23T07:25:27;15.19;55.71
75281;HTU21D;63874;47.230;39.620;2023-03-23T07:27:54;15.30;55.15
75281;HTU21D;63874;47.230;39.620;2023-03-23T07:30:21;15.42;54.66
75281;HTU21D;63874;47.230;39.620;2023-03-23T07:32:47;15.49;54.38
75281;HTU21D;63874;47.230;39.620;2023-03-23T07:35:13;15.55;53.88
75281;HTU21D;63874;47.230;39.620;2023-03-23T07:37:59;15.59;53.88
75281;HTU21D;63874;47.230;39.620;2023-03-23T07:40:25;15.66;54.02
75281;HTU21D;63874;47.230;39.620;2023-03-23T07:42:57;15.73;53.93
75281;HTU21D;63874;47.230;39.620;2023-03-23T07:45:34;15.80;53.60
75281;HTU21D;63874;47.230;39.620;2023-03-23T07:48:00;15.89;53.52
75281;HTU21D;63874;47.230;39.620;2023-03-23T07:50:27;16.01;53.11
75281;HTU21D;63874;47.230;39.620;2023-03-23T07:52:56;16.14;52.98
75281;HTU21D;63874;47.230;39.620;2023-03-23T07:55:25;16.22;52.59
75281;HTU21D;63874;47.230;39.620;2023-03-23T07:58:10;16.31;52.56
75281;HTU21D;63874;47.230;39.620;2023-03-23T08:00:37;16.39;52.18
75281;HTU21D;63874;47.230;39.620;2023-03-23T08:03:06;16.47;51.66
75281;HTU21D;63874;47.230;39.620;2023-03-23T08:05:45;16.59;51.53
75281;HTU21D;63874;47.230;39.620;2023-03-23T08:08:40;16.71;51.37
75281;HTU21D;63874;47.230;39.620;2023-03-23T08:11:26;16.81;51.31
75281;HTU21D;63874;47.230;39.620;2023-03-23T08:14:12;16.94;51.06
75281;HTU21D;63874;47.230;39.620;2023-03-23T08:16:57;17.05;50.33
75281;HTU21D;63874;47.230;39.620;2023-03-23T08:19:53;17.11;50.07
75281;HTU21D;63874;47.230;39.620;2023-03-23T08:22:40;17.14;50.02
75281;HTU21D;63874;47.230;39.620;2023-03-23T08:25:27;17.21;49.89
75281;HTU21D;63874;47.230;39.620;2023-03-23T08:28:22;17.35;49.24
75281;HTU21D;63874;47.230;39.620;2023-03-23T08:31:15;17.51;47.93
75281;HTU21D;63874;47.230;39.620;2023-03-23T08:34:11;17.58;47.23
75281;HTU21D;63874;47.230;39.620;2023-03-23T08:36:37;17.55;46.72
75281;HTU21D;63874;47.230;39.620;2023-03-23T08:39:38;17.55;46.84
75281;HTU21D;63874;47.230;39.620;2023-03-23T08:42:27;17.59;46.98
75281;HTU21D;63874;47.230;39.620;2023-03-23T08:45:09;17.62;47.19
75281;HTU21D;63874;47.230;39.620;2023-03-23T08:48:00;17.70;46.56
75281;HTU21D;63874;47.230;39.620;2023-03-23T08:50:32;17.77;46.13
75281;HTU21D;63874;47.230;39.620;2023-03-23T08:53:13;17.85;45.95
75281;HTU21D;63874;47.230;39.620;2023-03-23T08:55:42;17.92;45.85
75281;HTU21D;63874;47.230;39.620;2023-03-23T08:58:26;18.06;45.48
75281;HTU21D;63874;47.230;39.620;2023-03-23T09:01:05;18.19;45.33
75281;HTU21D;63874;47.230;39.620;2023-03-23T09:03:59;18.22;44.67
75281;HTU21D;63874;47.230;39.620;2023-03-23T09:06:36;18.24;44.34
75281;HTU21D;63874;47.230;39.620;2023-03-23T09:09:03;18.36;44.36
75281;HTU21D;63874;47.230;39.620;2023-03-23T09:11:33;18.59;43.78
75281;HTU21D;63874;47.230;39.620;2023-03-23T09:14:00;18.82;43.84
75281;HTU21D;63874;47.230;39.620;2023-03-23T09:16:26;18.97;42.96
75281;HTU21D;63874;47.230;39.620;2023-03-23T09:18:54;19.01;42.46
75281;HTU21D;63874;47.230;39.620;2023-03-23T09:21:23;19.06;42.15
75281;HTU21D;63874;47.230;39.620;2023-03-23T09:23:50;19.08;41.68
75281;HTU21D;63874;47.230;39.620;2023-03-23T09:26:17;19.11;41.55
75281;HTU21D;63874;47.230;39.620;2023-03-23T09:28:43;19.38;41.24
75281;HTU21D;63874;47.230;39.620;2023-03-23T09:31:11;19.72;40.77
75281;HTU21D;63874;47.230;39.620;2023-03-23T09:33:38;20.09;40.21
75281;HTU21D;63874;47.230;39.620;2023-03-23T09:36:04;20.51;39.27
75281;HTU21D;63874;47.230;39.620;2023-03-23T09:38:33;20.88;38.55
75281;HTU21D;63874;47.230;39.620;2023-03-23T09:52:04;22.23;36.10
75281;HTU21D;63874;47.230;39.620;2023-03-23T09:54:39;22.39;34.04
75281;HTU21D;63874;47.230;39.620;2023-03-23T10:03:21;22.67;33.90
75281;HTU21D;63874;47.230;39.620;2023-03-23T10:05:52;22.65;33.90
75281;HTU21D;63874;47.230;39.620;2023-03-23T10:08:22;22.48;33.67
75281;HTU21D;63874;47.230;39.620;2023-03-23T10:16:04;22.49;33.03
75281;HTU21D;63874;47.230;39.620;2023-03-23T10:18:38;22.08;33.65
75281;HTU21D;63874;47.230;39.620;2023-03-23T10:21:12;22.01;33.90
75281;HTU21D;63874;47.230;39.620;2023-03-23T10:23:54;22.14;34.07
75281;HTU21D;63874;47.230;39.620;2023-03-23T10:30:01;23.41;32.15
75281;HTU21D;63874;47.230;39.620;2023-03-23T10:32:18;24.62;32.01
75281;HTU21D;63874;47.230;39.620;2023-03-23T10:34:55;25.82;29.47
75281;HTU21D;63874;47.230;39.620;2023-03-23T10:39:56;26.39;27.77
75281;HTU21D;63874;47.230;39.620;2023-03-23T10:42:32;26.28;27.93
75281;HTU21D;63874;47.230;39.620;2023-03-23T10:45:00;26.19;27.83
75281;HTU21D;63874;47.230;39.620;2023-03-23T10:47:38;25.92;27.94
75281;HTU21D;63874;47.230;39.620;2023-03-23T10:50:12;25.76;27.65
75281;HTU21D;63874;47.230;39.620;2023-03-23T10:52:41;25.45;28.00
75281;HTU21D;63874;47.230;39.620;2023-03-23T10:55:10;25.10;28.43
75281;HTU21D;63874;47.230;39.620;2023-03-23T10:57:39;24.94;28.71
75281;HTU21D;63874;47.230;39.620;2023-03-23T11:05:37;23.98;29.76
75281;HTU21D;63874;47.230;39.620;2023-03-23T11:08:04;23.66;29.57
75281;HTU21D;63874;47.230;39.620;2023-03-23T11:10:49;23.43;30.18
75281;HTU21D;63874;47.230;39.620;2023-03-23T11:13:17;23.14;30.19
75281;HTU21D;63874;47.230;39.620;2023-03-23T11:15:44;22.78;30.57
75281;HTU21D;63874;47.230;39.620;2023-03-23T11:20:58;22.12;31.38
75281;HTU21D;63874;47.230;39.620;2023-03-23T11:23:28;21.88;31.72
75281;HTU21D;63874;47.230;39.620;2023-03-23T11:28:51;21.44;32.42
75281;HTU21D;63874;47.230;39.620;2023-03-23T11:31:21;21.20;32.83
75281;HTU21D;63874;47.230;39.620;2023-03-23T11:33:55;21.05;33.02
75281;HTU21D;63874;47.230;39.620;2023-03-23T11:36:40;20.98;32.96
75281;HTU21D;63874;47.230;39.620;2023-03-23T11:39:27;20.93;33.32
75281;HTU21D;63874;47.230;39.620;2023-03-23T11:41:54;20.89;33.44
75281;HTU21D;63874;47.230;39.620;2023-03-23T11:44:22;20.84;33.70
75281;HTU21D;63874;47.230;39.620;2023-03-23T11:50:27;20.60;33.56
75281;HTU21D;63874;47.230;39.620;2023-03-23T11:53:09;20.47;34.18
75281;HTU21D;63874;47.230;39.620;2023-03-23T11:58:15;20.32;34.67
75281;HTU21D;63874;47.230;39.620;2023-03-23T12:00:54;20.29;34.76
75281;HTU21D;63874;47.230;39.620;2023-03-23T12:03:21;20.20;34.78
75281;HTU21D;63874;47.230;39.620;2023-03-23T12:06:11;20.15;35.08
75281;HTU21D;63874;47.230;39.620;2023-03-23T12:14:44;19.98;35.74
75281;HTU21D;63874;47.230;39.620;2023-03-23T12:22:56;19.77;36.24
75281;HTU21D;63874;47.230;39.620;2023-03-23T12:28:00;19.65;36.30
75281;HTU21D;63874;47.230;39.620;2023-03-23T12:33:10;19.57;36.39
75281;HTU21D;63874;47.230;39.620;2023-03-23T12:41:27;19.44;36.83
75281;HTU21D;63874;47.230;39.620;2023-03-23T12:44:12;19.42;36.71
75281;HTU21D;63874;47.230;39.620;2023-03-23T12:46:49;19.35;37.02
75281;HTU21D;63874;47.230;39.620;2023-03-23T12:52:14;19.17;37.27
75281;HTU21D;63874;47.230;39.620;2023-03-23T12:58:01;19.07;37.81
75281;HTU21D;63874;47.230;39.620;2023-03-23T13:03:46;18.97;38.18
75281;HTU21D;63874;47.230;39.620;2023-03-23T13:06:38;18.91;38.15
75281;HTU21D;63874;47.230;39.620;2023-03-23T13:09:46;18.84;38.36
75281;HTU21D;63874;47.230;39.620;2023-03-23T13:12:15;18.81;38.58
75281;HTU21D;63874;47.230;39.620;2023-03-23T13:23:05;18.59;39.43
75281;HTU21D;63874;47.230;39.620;2023-03-23T13:28:19;18.51;39.85
75281;HTU21D;63874;47.230;39.620;2023-03-23T13:31:01;18.48;39.94
75281;HTU21D;63874;47.230;39.620;2023-03-23T13:33:32;18.42;40.12
75281;HTU21D;63874;47.230;39.620;2023-03-23T13:36:29;18.35;40.15
75281;HTU21D;63874;47.230;39.620;2023-03-23T13:38:58;18.27;40.38
75281;HTU21D;63874;47.230;39.620;2023-03-23T13:41:25;18.19;40.62
75281;HTU21D;63874;47.230;39.620;2023-03-23T13:44:04;18.15;40.69
75281;HTU21D;63874;47.230;39.620;2023-03-23T13:46:31;18.11;40.84
75281;HTU21D;63874;47.230;39.620;2023-03-23T13:49:18;18.10;40.84
75281;HTU21D;63874;47.230;39.620;2023-03-23T13:56:54;17.99;41.12
75281;HTU21D;63874;47.230;39.620;2023-03-23T14:02:20;17.95;41.13
75281;HTU21D;63874;47.230;39.620;2023-03-23T14:04:39;17.87;41.36
75281;HTU21D;63874;47.230;39.620;2023-03-23T14:07:10;17.83;41.54
75281;HTU21D;63874;47.230;39.620;2023-03-23T14:09:38;17.80;41.57
75281;HTU21D;63874;47.230;39.620;2023-03-23T14:12:13;17.76;41.69
75281;HTU21D;63874;47.230;39.620;2023-03-23T14:14:44;17.69;41.83
75281;HTU21D;63874;47.230;39.620;2023-03-23T14:17:18;17.64;41.89
75281;HTU21D;63874;47.230;39.620;2023-03-23T14:19:52;17.62;41.91
75281;HTU21D;63874;47.230;39.620;2023-03-23T14:22:32;17.56;42.02
75281;HTU21D;63874;47.230;39.620;2023-03-23T14:25:10;17.53;42.16
75281;HTU21D;63874;47.230;39.620;2023-03-23T14:27:36;17.51;42.27
75281;HTU21D;63874;47.230;39.620;2023-03-23T14:30:06;17.49;42.41
75281;HTU21D;63874;47.230;39.620;2023-03-23T14:32:33;17.45;42.51
75281;HTU21D;63874;47.230;39.620;2023-03-23T14:35:07;17.41;42.63
75281;HTU21D;63874;47.230;39.620;2023-03-23T14:37:34;17.38;42.68
75281;HTU21D;63874;47.230;39.620;2023-03-23T14:40:03;17.34;42.71
75281;HTU21D;63874;47.230;39.620;2023-03-23T14:42:35;17.30;42.75
75281;HTU21D;63874;47.230;39.620;2023-03-23T14:45:04;17.28;42.82
75281;HTU21D;63874;47.230;39.620;2023-03-23T14:47:32;17.24;42.92
75281;HTU21D;63874;47.230;39.620;2023-03-23T14:50:01;17.18;43.05
75281;HTU21D;63874;47.230;39.620;2023-03-23T14:52:33;17.15;43.10
75281;HTU21D;63874;47.230;39.620;2023-03-23T14:55:21;17.11;43.19
75281;HTU21D;63874;47.230;39.620;2023-03-23T14:57:49;17.06;43.38
75281;HTU21D;63874;47.230;39.620;2023-03-23T15:00:35;17.01;43.45
75281;HTU21D;63874;47.230;39.620;2023-03-23T15:03:03;16.96;43.58
75281;HTU21D;63874;47.230;39.620;2023-03-23T15:05:36;16.92;43.69
75281;HTU21D;63874;47.230;39.620;2023-03-23T15:08:06;16.88;43.80
75281;HTU21D;63874;47.230;39.620;2023-03-23T15:10:33;16.82;43.88
75281;HTU21D;63874;47.230;39.620;2023-03-23T15:12:59;16.80;43.96
75281;HTU21D;63874;47.230;39.620;2023-03-23T15:15:29;16.76;44.09
75281;HTU21D;63874;47.230;39.620;2023-03-23T15:17:58;16.73;44.15
75281;HTU21D;63874;47.230;39.620;2023-03-23T15:20:31;16.67;44.29
75281;HTU21D;63874;47.230;39.620;2023-03-23T15:23:07;16.63;44.38
75281;HTU21D;63874;47.230;39.620;2023-03-23T15:25:35;16.59;44.48
75281;HTU21D;63874;47.230;39.620;2023-03-23T15:28:29;16.56;44.58
75281;HTU21D;63874;47.230;39.620;2023-03-23T15:30:57;16.50;44.74
75281;HTU21D;63874;47.230;39.620;2023-03-23T15:33:25;16.43;44.89
75281;HTU21D;63874;47.230;39.620;2023-03-23T15:35:54;16.37;45.02
75281;HTU21D;63874;47.230;39.620;2023-03-23T15:38:28;16.33;45.12
75281;HTU21D;63874;47.230;39.620;2023-03-23T15:40:57;16.31;45.26
75281;HTU21D;63874;47.230;39.620;2023-03-23T15:43:26;16.27;45.34
75281;HTU21D;63874;47.230;39.620;2023-03-23T15:45:56;16.28;45.36
75281;HTU21D;63874;47.230;39.620;2023-03-23T15:48:27;16.27;45.38
75281;HTU21D;63874;47.230;39.620;2023-03-23T15:50:53;16.24;45.48
75281;HTU21D;63874;47.230;39.620;2023-03-23T15:53:29;16.19;45.55
75281;HTU21D;63874;47.230;39.620;2023-03-23T15:55:57;16.17;45.64
75281;HTU21D;63874;47.230;39.620;2023-03-23T15:58:23;16.19;45.69
75281;HTU21D;63874;47.230;39.620;2023-03-23T16:00:50;16.18;45.73
75281;HTU21D;63874;47.230;39.620;2023-03-23T16:03:24;16.13;45.84
75281;HTU21D;63874;47.230;39.620;2023-03-23T16:05:53;16.11;45.95
75281;HTU21D;63874;47.230;39.620;2023-03-23T16:08:20;16.06;46.06
75281;HTU21D;63874;47.230;39.620;2023-03-23T16:10:47;16.02;46.15
75281;HTU21D;63874;47.230;39.620;2023-03-23T16:13:13;16.00;46.25
75281;HTU21D;63874;47.230;39.620;2023-03-23T16:15:39;15.97;46.34
75281;HTU21D;63874;47.230;39.620;2023-03-23T16:18:05;15.96;46.42
75281;HTU21D;63874;47.230;39.620;2023-03-23T16:20:31;15.95;46.49
75281;HTU21D;63874;47.230;39.620;2023-03-23T16:22:57;15.93;46.54
75281;HTU21D;63874;47.230;39.620;2023-03-23T16:25:23;15.95;46.57
75281;HTU21D;63874;47.230;39.620;2023-03-23T16:27:49;15.95;46.58
75281;HTU21D;63874;47.230;39.620;2023-03-23T16:30:19;15.97;46.59
75281;HTU21D;63874;47.230;39.620;2023-03-23T16:32:45;15.99;46.61
75281;HTU21D;63874;47.230;39.620;2023-03-23T16:35:12;15.99;46.62
75281;HTU21D;63874;47.230;39.620;2023-03-23T16:37:47;16.00;46.63
75281;HTU21D;63874;47.230;39.620;2023-03-23T16:40:14;16.01;46.66
75281;HTU21D;63874;47.230;39.620;2023-03-23T16:42:41;16.02;46.64
75281;HTU21D;63874;47.230;39.620;2023-03-23T16:45:08;16.04;46.61
75281;HTU21D;63874;47.230;39.620;2023-03-23T16:47:34;16.03;46.63
75281;HTU21D;63874;47.230;39.620;2023-03-23T16:50:01;16.04;46.64
75281;HTU21D;63874;47.230;39.620;2023-03-23T16:52:27;16.04;46.67
75281;HTU21D;63874;47.230;39.620;2023-03-23T16:54:53;16.03;46.70
75281;HTU21D;63874;47.230;39.620;2023-03-23T16:57:19;16.03;46.72
75281;HTU21D;63874;47.230;39.620;2023-03-23T16:59:45;16.03;46.65
75281;HTU21D;63874;47.230;39.620;2023-03-23T17:02:11;16.03;46.64
75281;HTU21D;63874;47.230;39.620;2023-03-23T17:04:42;16.05;46.64
75281;HTU21D;63874;47.230;39.620;2023-03-23T17:07:08;16.02;46.67
75281;HTU21D;63874;47.230;39.620;2023-03-23T17:09:34;16.01;46.73
75281;HTU21D;63874;47.230;39.620;2023-03-23T17:12:00;16.00;46.76
75281;HTU21D;63874;47.230;39.620;2023-03-23T17:14:26;15.98;46.80
75281;HTU21D;63874;47.230;39.620;2023-03-23T17:16:52;15.96;46.80
75281;HTU21D;63874;47.230;39.620;2023-03-23T17:19:18;15.92;46.86
75281;HTU21D;63874;47.230;39.620;2023-03-23T17:21:44;15.90;46.88
75281;HTU21D;63874;47.230;39.620;2023-03-23T17:24:10;15.87;46.92
75281;HTU21D;63874;47.230;39.620;2023-03-23T17:26:36;15.83;47.01
75281;HTU21D;63874;47.230;39.620;2023-03-23T17:29:03;15.80;47.11
75281;HTU21D;63874;47.230;39.620;2023-03-23T17:31:29;15.77;47.17
75281;HTU21D;63874;47.230;39.620;2023-03-23T17:33:54;15.74;47.28
75281;HTU21D;63874;47.230;39.620;2023-03-23T17:36:22;15.72;47.35
75281;HTU21D;63874;47.230;39.620;2023-03-23T17:38:49;15.70;47.43